Time;durP1;ratioP1;P1;durP2;ratioP2;P2;SDS_P1;SDS_P2;PMS_P1;PMS_P2;Temp;Humidity;BMP_temperature;BMP_pressure;BME280_temperature;BME280_humidity;BME280_pressure;Samples;Min_cycle;Max_cycle;Signal;HPM_P1;HPM_P2
2022/12/06 00:01:32;;;;;;;0.10;0.10;;;4.80;99.90;;;4.57;100.00;100595.31;5023110;28;20334;-75
2022/12/06 00:04:07;;;;;;;0.00;0.00;;;4.70;99.90;;;4.54;100.00;100603.97;5027510;28;20297;-75
2022/12/06 00:06:42;;;;;;;0.10;0.10;;;4.70;99.90;;;4.47;100.00;100594.09;5028427;28;20316;-75
2022/12/06 00:09:18;;;;;;;0.20;0.20;;;4.60;99.90;;;4.44;100.00;100599.22;5027400;28;20231;-76
2022/12/06 00:11:45;;;;;;;0.10;0.10;;;4.60;99.90;;;4.42;100.00;100595.66;5025378;28;20253;-75
2022/12/06 00:14:12;;;;;;;0.00;0.00;;;4.70;99.90;;;4.44;100.00;100607.09;5019077;28;20233;-75
2022/12/06 00:16:40;;;;;;;0.10;0.10;;;4.50;99.90;;;4.45;100.00;100604.53;5021230;28;20247;-75
2022/12/06 00:19:08;;;;;;;0.10;0.10;;;4.60;99.90;;;4.44;100.00;100600.13;5029122;28;20302;-75
2022/12/06 00:21:37;;;;;;;0.10;0.10;;;4.80;99.90;;;4.53;100.00;100603.91;5013550;28;20241;-75
2022/12/06 00:24:20;;;;;;;0.00;0.00;;;4.70;99.90;;;4.60;100.00;100600.69;5016479;23;20265;-77
2022/12/06 00:26:49;;;;;;;0.10;0.10;;;4.70;99.90;;;4.61;100.00;100598.09;5007681;28;20251;-77
2022/12/06 00:29:22;;;;;;;0.10;0.10;;;4.80;99.90;;;4.63;100.00;100595.53;5005784;28;20246;-77
2022/12/06 00:31:50;;;;;;;0.10;0.10;;;4.80;99.90;;;4.65;100.00;100589.53;5011213;28;20235;-78
2022/12/06 00:34:17;;;;;;;0.10;0.10;;;4.80;99.90;;;4.65;100.00;100591.25;5005324;28;20231;-77
2022/12/06 00:36:44;;;;;;;0.10;0.10;;;4.80;99.90;;;4.66;100.00;100586.06;5010156;28;20322;-76
2022/12/06 00:39:14;;;;;;;0.10;0.10;;;4.80;99.90;;;4.67;100.00;100580.00;5008857;28;20263;-75
2022/12/06 00:41:43;;;;;;;0.10;0.10;;;4.90;99.90;;;4.65;100.00;100576.44;5016364;28;20703;-75
2022/12/06 00:44:11;;;;;;;0.10;0.10;;;4.80;99.90;;;4.63;100.00;100565.00;5016089;28;20262;-75
2022/12/06 00:46:38;;;;;;;0.10;0.10;;;4.80;99.90;;;4.58;100.00;100558.72;5010600;28;20231;-77
2022/12/06 00:49:07;;;;;;;0.10;0.10;;;4.70;99.90;;;4.55;100.00;100553.38;5013870;28;20231;-77
2022/12/06 00:51:35;;;;;;;0.10;0.10;;;4.60;99.90;;;4.54;100.00;100545.47;5004432;28;20279;-77
2022/12/06 00:54:03;;;;;;;0.10;0.10;;;4.70;99.90;;;4.55;100.00;100544.63;4996640;28;20256;-75
2022/12/06 00:56:31;;;;;;;0.10;0.10;;;4.70;99.90;;;4.50;100.00;100547.97;5008747;28;20278;-75
2022/12/06 00:58:58;;;;;;;0.00;0.00;;;4.70;99.90;;;4.45;100.00;100540.78;5024626;28;20322;-77
2022/12/06 01:01:29;;;;;;;0.10;0.10;;;4.60;99.90;;;4.41;100.00;100547.66;5007949;28;20255;-77
2022/12/06 01:03:59;;;;;;;0.10;0.10;;;4.60;99.90;;;4.36;100.00;100541.34;5009533;28;20608;-77
2022/12/06 01:06:30;;;;;;;0.10;0.10;;;4.50;99.90;;;4.39;100.00;100537.97;4987897;28;20307;-75
2022/12/06 01:09:00;;;;;;;0.20;0.20;;;4.50;99.90;;;4.45;100.00;100543.41;5011561;28;20258;-75
2022/12/06 01:11:28;;;;;;;0.10;0.10;;;4.50;99.90;;;4.48;100.00;100543.50;5008466;28;20247;-75
2022/12/06 01:13:56;;;;;;;0.10;0.10;;;4.60;99.90;;;4.49;100.00;100543.56;4991392;28;20254;-77
2022/12/06 01:16:27;;;;;;;0.10;0.10;;;4.70;99.90;;;4.49;100.00;100534.81;5010861;28;20262;-77
2022/12/06 01:18:59;;;;;;;0.10;0.10;;;4.70;99.90;;;4.46;100.00;100539.94;5009063;28;20236;-75
2022/12/06 01:21:29;;;;;;;0.10;0.10;;;4.60;99.90;;;4.44;100.00;100539.91;5008633;28;20274;-76
2022/12/06 01:23:57;;;;;;;0.10;0.10;;;4.60;99.90;;;4.49;100.00;100542.69;5017641;28;20240;-75
2022/12/06 01:26:33;;;;;;;0.10;0.10;;;4.60;99.90;;;4.54;100.00;100550.69;5012119;28;20308;-77
2022/12/06 01:29:02;;;;;;;0.10;0.10;;;4.60;99.90;;;4.55;100.00;100544.63;5008896;28;20671;-77
2022/12/06 01:31:30;;;;;;;0.10;0.10;;;4.60;99.90;;;4.55;100.00;100542.88;5014845;28;20243;-77
2022/12/06 01:34:11;;;;;;;0.10;0.10;;;4.70;99.90;;;4.52;100.00;100537.56;5020837;28;20314;-75
2022/12/06 01:36:38;;;;;;;0.10;0.10;;;4.70;99.90;;;4.50;100.00;100524.41;4974380;28;20274;-78
2022/12/06 01:39:09;;;;;;;0.10;0.10;;;4.60;99.90;;;4.47;100.00;100537.38;5016745;28;20759;-78
2022/12/06 01:41:38;;;;;;;0.10;0.10;;;4.70;99.90;;;4.45;100.00;100533.81;4993720;28;20247;-79
2022/12/06 01:44:05;;;;;;;0.10;0.10;;;4.60;99.90;;;4.44;100.00;100539.91;5007443;28;20291;-79
2022/12/06 01:46:38;;;;;;;0.10;0.10;;;4.70;99.90;;;4.41;100.00;100534.56;4990123;28;20227;-78
2022/12/06 01:49:12;;;;;;;0.10;0.10;;;4.60;99.90;;;4.42;100.00;100538.06;5011791;28;20231;-78
2022/12/06 01:52:00;;;;;;;0.10;0.10;;;4.60;99.90;;;4.38;100.00;100531.81;5012565;28;20656;-79
2022/12/06 01:54:28;;;;;;;0.10;0.10;;;4.50;99.90;;;4.39;100.00;100533.63;4983294;28;20290;-79
2022/12/06 01:56:57;;;;;;;0.10;0.10;;;4.50;99.90;;;4.37;100.00;100542.25;5013180;28;20603;-79
2022/12/06 01:59:25;;;;;;;0.10;0.10;;;4.50;99.90;;;4.35;100.00;100536.97;4992061;28;20248;-78
2022/12/06 02:01:53;;;;;;;0.10;0.10;;;4.50;99.90;;;4.37;100.00;100535.28;4995578;28;20664;-77
2022/12/06 02:04:22;;;;;;;0.10;0.10;;;4.40;99.90;;;4.39;100.00;100535.34;4991796;28;20290;-74
2022/12/06 02:06:51;;;;;;;0.10;0.10;;;4.60;99.90;;;4.35;100.00;100523.88;5006388;28;20236;-77
2022/12/06 02:09:20;;;;;;;0.10;0.10;;;4.50;99.90;;;4.32;100.00;100520.25;5007163;28;20301;-76
2022/12/06 02:11:47;;;;;;;0.10;0.10;;;4.50;99.90;;;4.31;100.00;100518.47;4993902;28;20318;-76
2022/12/06 02:14:19;;;;;;;0.10;0.10;;;4.40;99.90;;;4.31;100.00;100519.34;5012078;28;20611;-75
2022/12/06 02:16:53;;;;;;;0.10;0.10;;;4.50;99.90;;;4.29;100.00;100520.13;4991536;28;20677;-75
2022/12/06 02:19:54;;;;;;;0.10;0.10;;;4.40;99.90;;;4.32;100.00;100521.13;5014602;28;20223;-77
2022/12/06 02:25:43;;;;;;;0.10;0.10;;;4.40;99.90;;;4.27;100.00;100532.28;5033306;23;20227;-75
2022/12/06 02:29:06;;;;;;;0.20;0.20;;;4.40;99.90;;;4.25;100.00;100528.72;5029748;28;20278;-74
2022/12/06 02:31:49;;;;;;;0.10;0.10;;;4.40;99.90;;;4.25;100.00;100529.63;5026375;28;20305;-75
2022/12/06 02:34:28;;;;;;;0.10;0.10;;;4.40;99.90;;;4.27;100.00;100530.56;5018327;28;20254;-74
2022/12/06 02:37:06;;;;;;;0.10;0.10;;;4.40;99.90;;;4.23;100.00;100530.41;5018342;28;20325;-77
2022/12/06 02:39:49;;;;;;;0.10;0.10;;;4.40;99.90;;;4.18;100.00;100528.50;5024317;28;20333;-72
2022/12/06 02:42:29;;;;;;;0.10;0.10;;;4.30;99.90;;;4.15;100.00;100536.25;5016951;28;20356;-72
2022/12/06 02:45:02;;;;;;;0.20;0.20;;;4.30;99.90;;;4.10;100.00;100529.94;5023588;28;20243;-74
2022/12/06 02:47:35;;;;;;;0.10;0.10;;;4.20;99.90;;;4.11;100.00;100534.34;5026369;28;20257;-75
2022/12/06 02:50:10;;;;;;;0.10;0.10;;;4.30;99.90;;;4.10;100.00;100535.19;5024729;28;20219;-72
2022/12/06 02:52:41;;;;;;;0.10;0.10;;;4.30;99.90;;;4.09;100.00;100549.09;5023612;28;20305;-76
2022/12/06 02:55:10;;;;;;;0.10;0.10;;;4.30;99.90;;;4.10;100.00;100542.16;5024585;28;20294;-72
2022/12/06 02:57:44;;;;;;;0.08;0.08;;;4.30;99.90;;;4.16;100.00;100553.72;5021922;28;20231;-72
2022/12/06 03:00:34;;;;;;;0.10;0.10;;;4.20;99.90;;;4.16;100.00;100556.34;5048344;28;20230;-72
2022/12/06 03:03:37;;;;;;;0.03;0.03;;;4.30;99.90;;;4.12;100.00;100548.34;5039554;28;20277;-75
2022/12/06 03:06:31;;;;;;;0.10;0.10;;;4.30;99.90;;;4.08;100.00;100546.44;5048273;28;20346;-74
2022/12/06 03:09:04;;;;;;;0.10;0.10;;;4.20;99.90;;;4.04;100.00;100541.94;5029591;28;20222;-74
2022/12/06 03:12:02;;;;;;;0.10;0.10;;;4.20;99.90;;;4.01;100.00;100544.44;5044630;28;20223;-74
2022/12/06 03:14:44;;;;;;;0.20;0.20;;;4.10;99.90;;;4.10;100.00;100550.88;5026657;28;20288;-76
2022/12/06 03:17:49;;;;;;;0.10;0.10;;;4.20;99.90;;;4.03;100.00;100548.00;5034331;28;20696;-75
2022/12/06 03:20:52;;;;;;;0.10;0.10;;;4.20;99.90;;;4.06;100.00;100553.34;5031367;28;20241;-74
2022/12/06 03:23:32;;;;;;;0.10;0.10;;;4.20;99.90;;;4.03;100.00;100548.88;5127354;23;20195;-79
2022/12/06 03:26:00;;;;;;;0.85;0.85;;;4.20;99.90;;;4.07;100.00;100549.88;4964466;28;20293;-78
2022/12/06 03:28:29;;;;;;;0.10;0.10;;;4.10;99.90;;;4.08;100.00;100547.31;5005826;28;20224;-79
2022/12/06 03:31:05;;;;;;;0.10;0.10;;;4.20;99.90;;;4.04;100.00;100536.69;5004569;28;20232;-79
2022/12/06 03:33:38;;;;;;;0.10;0.10;;;4.10;99.90;;;4.04;100.00;100544.53;4980456;28;20227;-78
2022/12/06 03:36:06;;;;;;;0.10;0.10;;;4.20;99.90;;;3.99;100.00;100531.28;5004522;28;20306;-78
2022/12/06 03:38:44;;;;;;;0.10;0.10;;;4.10;99.90;;;3.97;100.00;100532.97;5003660;28;20301;-79
2022/12/06 03:41:13;;;;;;;0.08;0.08;;;4.10;99.90;;;3.96;100.00;100532.91;4993879;28;20327;-77
2022/12/06 03:43:41;;;;;;;0.05;0.05;;;4.10;99.90;;;3.99;100.00;100546.09;4989495;28;20726;-76
2022/12/06 03:46:16;;;;;;;0.10;0.10;;;4.30;99.90;;;3.98;100.00;100537.34;5000418;28;20235;-79
2022/12/06 03:49:00;;;;;;;0.10;0.10;;;4.10;99.90;;;3.92;100.00;100537.13;4997417;28;20306;-79
2022/12/06 03:51:31;;;;;;;0.10;0.10;;;4.10;99.90;;;4.00;100.00;100551.38;5002560;28;20223;-78
2022/12/06 03:54:03;;;;;;;0.10;0.10;;;4.10;99.90;;;3.99;100.00;100543.47;4998698;28;20279;-78
2022/12/06 03:56:31;;;;;;;0.10;0.10;;;4.10;99.90;;;3.96;100.00;100546.88;5008809;28;20251;-79
2022/12/06 03:58:58;;;;;;;0.10;0.10;;;4.10;99.90;;;3.96;100.00;100538.13;5010150;28;20251;-79
2022/12/06 04:01:25;;;;;;;0.10;0.10;;;4.20;99.90;;;3.99;100.00;100541.75;4987380;28;20323;-79
2022/12/06 04:03:52;;;;;;;0.10;0.10;;;4.10;99.90;;;3.97;100.00;100535.56;5001363;28;20336;-79
2022/12/06 04:06:19;;;;;;;0.08;0.08;;;4.20;99.90;;;3.96;100.00;100533.78;4999024;28;20569;-79
2022/12/06 04:08:46;;;;;;;0.10;0.10;;;4.10;99.90;;;3.99;100.00;100526.06;5005553;28;20310;-79
2022/12/06 04:11:13;;;;;;;0.10;0.10;;;4.20;99.90;;;3.98;100.00;100526.88;5008062;28;20247;-78
2022/12/06 04:13:40;;;;;;;0.10;0.10;;;4.20;99.90;;;3.96;100.00;100525.94;5002486;28;20236;-79
2022/12/06 04:18:09;;;;;;;0.55;0.55;;;4.10;99.90;;;3.97;100.00;100529.44;5006265;28;20330;-78
2022/12/06 04:18:55;;;;;;;0.20;0.20;;;4.30;99.90;;;3.96;100.00;100518.09;5009984;28;20231;-78
2022/12/06 04:23:58;;;;;;;0.10;0.10;;;4.10;99.90;;;4.03;100.00;100514.88;5034498;23;20604;-75
2022/12/06 04:26:26;;;;;;;0.10;0.10;;;4.10;99.90;;;4.04;100.00;100514.03;5050067;28;20230;-74
2022/12/06 04:39:55;;;;;;;0.10;0.10;;;4.20;99.90;;;4.00;100.00;100508.63;5020786;28;20236;-72
2022/12/06 04:45:11;;;;;;;0.10;0.10;;;4.20;99.90;;;3.99;100.00;100507.75;5028538;28;20673;-75
2022/12/06 04:47:38;;;;;;;0.10;0.10;;;4.10;99.90;;;4.01;100.00;100507.78;5032998;28;20250;-75
2022/12/06 04:50:06;;;;;;;0.10;0.10;;;4.20;99.90;;;4.03;100.00;100509.63;5029646;28;20227;-76
2022/12/06 04:52:33;;;;;;;0.10;0.10;;;4.10;99.90;;;3.95;100.00;100511.06;5029411;28;20235;-72
2022/12/06 04:55:04;;;;;;;0.10;0.10;;;4.10;99.90;;;3.89;100.00;100497.75;5030238;28;20258;-72
2022/12/06 04:57:31;;;;;;;0.10;0.10;;;4.10;99.90;;;3.87;100.00;100504.63;5012013;28;20226;-71
2022/12/06 04:59:58;;;;;;;0.10;0.10;;;4.00;99.90;;;3.91;100.00;100516.16;5029463;28;20231;-72
2022/12/06 05:02:25;;;;;;;0.10;0.10;;;4.00;99.90;;;3.88;100.00;100513.38;5024476;28;20231;-73
2022/12/06 05:04:52;;;;;;;0.10;0.10;;;4.00;99.90;;;3.87;100.00;100507.25;5025234;28;20246;-73
2022/12/06 05:07:19;;;;;;;0.10;0.10;;;4.00;99.90;;;3.86;100.00;100508.09;5023091;28;20366;-73
2022/12/06 05:09:46;;;;;;;0.25;0.20;;;4.00;99.90;;;3.86;100.00;100500.25;5025273;28;20778;-73
2022/12/06 05:12:13;;;;;;;0.10;0.10;;;4.00;99.90;;;3.90;100.00;100496.00;5021681;28;20302;-73
2022/12/06 05:14:40;;;;;;;0.10;0.10;;;4.00;99.90;;;3.94;100.00;100501.44;5024659;28;20691;-72
2022/12/06 05:17:07;;;;;;;0.10;0.10;;;4.10;99.90;;;3.89;100.00;100489.00;5019284;28;20228;-75
2022/12/06 05:19:34;;;;;;;0.10;0.10;;;4.10;99.90;;;3.88;100.00;100490.72;5023209;28;20317;-72
2022/12/06 05:22:02;;;;;;;0.10;0.10;;;4.00;99.90;;;3.88;100.00;100489.84;5026714;28;20231;-73
2022/12/06 05:24:29;;;;;;;0.05;0.05;;;4.00;99.90;;;3.85;100.00;100481.03;5012734;23;20284;-78
2022/12/06 05:26:56;;;;;;;0.10;0.10;;;4.00;99.90;;;3.80;100.00;100474.75;4988642;28;20306;-78
2022/12/06 05:29:23;;;;;;;0.10;0.10;;;4.00;99.90;;;3.84;100.00;100478.38;4962555;28;20288;-79
2022/12/06 05:31:50;;;;;;;0.10;0.10;;;4.00;99.90;;;3.84;100.00;100468.78;4975005;28;20239;-78
2022/12/06 05:34:17;;;;;;;0.10;0.10;;;3.90;99.90;;;3.85;100.00;100481.03;4979902;28;20614;-78
2022/12/06 05:36:44;;;;;;;0.10;0.10;;;4.00;99.90;;;3.84;100.00;100474.03;4992231;28;20323;-78
2022/12/06 05:39:12;;;;;;;0.10;0.10;;;4.00;99.90;;;3.83;100.00;100476.59;5010497;28;20255;-75
2022/12/06 05:41:39;;;;;;;0.10;0.10;;;4.00;99.90;;;3.83;100.00;100474.88;4992646;28;20242;-77
2022/12/06 05:44:06;;;;;;;0.10;0.10;;;4.00;99.90;;;3.90;100.00;100480.31;4991649;28;20335;-77
2022/12/06 05:46:33;;;;;;;0.10;0.10;;;4.00;99.90;;;3.92;100.00;100476.06;4993497;28;20319;-79
2022/12/06 05:49:00;;;;;;;0.10;0.10;;;4.00;99.90;;;3.91;100.00;100469.94;4975026;28;20252;-80
2022/12/06 05:51:27;;;;;;;0.10;0.10;;;4.00;99.90;;;3.89;100.00;100474.19;4990320;28;20296;-78
2022/12/06 05:53:54;;;;;;;0.10;0.10;;;4.00;99.90;;;3.92;100.00;100473.44;4993008;28;20264;-77
2022/12/06 05:56:21;;;;;;;0.10;0.10;;;3.90;99.90;;;3.94;100.00;100474.41;4992652;28;20252;-77
2022/12/06 05:58:48;;;;;;;0.10;0.10;;;4.00;99.90;;;3.89;100.00;100474.19;4991591;28;20274;-78
2022/12/06 06:01:15;;;;;;;0.10;0.10;;;4.00;99.90;;;3.86;100.00;100477.59;4991589;28;20359;-78
2022/12/06 06:03:42;;;;;;;0.10;0.10;;;4.00;99.90;;;3.86;100.00;100468.84;4993517;28;20260;-78
2022/12/06 06:06:14;;;;;;;0.10;0.10;;;4.00;99.90;;;3.83;100.00;100473.97;4994740;28;20263;-78
2022/12/06 06:08:41;;;;;;;0.10;0.10;;;4.00;99.90;;;3.80;100.00;100466.00;4991077;28;20232;-79
2022/12/06 06:11:08;;;;;;;0.30;0.30;;;3.90;99.90;;;3.78;100.00;100460.72;4990744;28;20228;-79
2022/12/06 06:13:35;;;;;;;0.13;0.13;;;4.00;99.90;;;3.82;100.00;100460.00;4988231;28;20266;-78
2022/12/06 06:16:03;;;;;;;0.10;0.10;;;4.00;99.90;;;3.83;100.00;100456.56;4987006;28;20228;-78
2022/12/06 06:18:30;;;;;;;0.10;0.10;;;4.00;99.90;;;3.83;100.00;100459.16;4991265;28;20236;-77
2022/12/06 06:20:59;;;;;;;0.10;0.10;;;4.00;99.90;;;3.83;100.00;100456.56;4991145;28;20579;-77
2022/12/06 06:23:27;;;;;;;0.10;0.10;;;4.00;99.90;;;3.79;100.00;100449.44;5068013;23;20320;-75
2022/12/06 06:25:55;;;;;;;0.10;0.10;;;4.00;99.90;;;3.79;100.00;100452.03;5010161;28;20282;-74
2022/12/06 06:28:22;;;;;;;0.10;0.10;;;4.00;99.90;;;3.77;100.00;100453.72;5022575;28;20250;-74
2022/12/06 06:30:50;;;;;;;0.10;0.10;;;4.00;99.90;;;3.82;100.00;100453.88;5029346;28;20322;-75
2022/12/06 06:33:17;;;;;;;0.10;0.10;;;4.00;99.90;;;3.76;100.00;100448.44;5024142;28;20223;-74
2022/12/06 06:35:45;;;;;;;0.10;0.10;;;3.90;99.90;;;3.75;100.00;100441.41;5015676;28;20241;-75
2022/12/06 06:38:12;;;;;;;0.10;0.10;;;3.90;99.90;;;3.77;100.00;100444.97;5035698;28;20254;-75
2022/12/06 06:40:39;;;;;;;0.10;0.10;;;3.90;99.90;;;3.81;100.00;100446.88;5021380;28;20331;-72
2022/12/06 06:43:19;;;;;;;0.10;0.10;;;3.90;99.90;;;3.75;100.00;100441.41;5025593;28;20241;-73
2022/12/06 06:45:58;;;;;;;0.10;0.10;;;3.90;99.90;;;3.78;100.00;100452.88;5024724;28;20245;-72
2022/12/06 06:48:28;;;;;;;0.10;0.10;;;3.90;99.90;;;3.76;100.00;100451.94;5022140;28;20222;-75
2022/12/06 06:50:55;;;;;;;0.10;0.10;;;3.90;99.90;;;3.76;100.00;100451.94;5019151;28;20314;-75
2022/12/06 06:53:26;;;;;;;0.10;0.10;;;3.90;99.90;;;3.76;100.00;100459.78;5021926;28;20639;-73
2022/12/06 06:55:54;;;;;;;0.10;0.10;;;4.00;99.90;;;3.76;100.00;100461.50;5022561;28;20219;-74
2022/12/06 06:58:21;;;;;;;0.10;0.10;;;3.90;99.90;;;3.74;100.00;100457.94;5030111;28;20314;-75
2022/12/06 07:00:58;;;;;;;0.10;0.10;;;3.90;99.90;;;3.74;100.00;100452.72;5026955;28;20223;-75
2022/12/06 07:03:26;;;;;;;0.10;0.10;;;4.00;99.90;;;3.73;100.00;100457.06;5029557;28;20238;-75
2022/12/06 07:05:57;;;;;;;0.10;0.10;;;3.90;99.90;;;3.72;100.00;100457.00;5017367;28;20287;-73
2022/12/06 07:08:26;;;;;;;0.10;0.10;;;3.90;99.90;;;3.72;100.00;100457.88;5025201;28;20262;-73
2022/12/06 07:10:54;;;;;;;0.10;0.10;;;3.90;99.90;;;3.70;100.00;100446.47;5028594;28;20239;-73
2022/12/06 07:13:23;;;;;;;0.10;0.10;;;3.80;99.90;;;3.71;100.00;100449.97;4996033;28;20236;-75
2022/12/06 07:15:51;;;;;;;0.10;0.10;;;4.00;99.90;;;3.70;100.00;100451.72;5031068;28;20314;-75
2022/12/06 07:18:19;;;;;;;0.10;0.10;;;3.80;99.90;;;3.71;100.00;100448.25;5027706;28;20258;-75
2022/12/06 07:20:47;;;;;;;0.10;0.10;;;3.80;99.90;;;3.72;100.00;100447.44;5025242;28;20413;-73
2022/12/06 07:23:15;;;;;;;0.10;0.10;;;3.90;99.90;;;3.73;100.00;100450.94;5029734;28;20302;-72
2022/12/06 07:25:42;;;;;;;0.10;0.10;;;3.90;99.90;;;3.74;100.00;100450.09;5012116;28;20748;-72
2022/12/06 07:28:09;;;;;;;0.10;0.10;;;4.00;99.90;;;3.77;100.00;100451.09;5018815;28;20237;-72
2022/12/06 07:30:36;;;;;;;0.10;0.10;;;3.90;99.90;;;3.74;100.00;100453.59;5027440;28;20293;-75
2022/12/06 07:33:03;;;;;;;0.10;0.10;;;3.90;99.90;;;3.76;100.00;100459.78;5029718;28;20233;-75
2022/12/06 07:35:30;;;;;;;0.10;0.10;;;3.90;99.90;;;3.74;100.00;100464.06;5031210;28;20307;-74
2022/12/06 07:38:17;;;;;;;0.10;0.10;;;3.80;99.90;;;3.75;100.00;100475.41;5025750;28;20219;-73
2022/12/06 07:40:44;;;;;;;0.10;0.10;;;3.80;99.90;;;3.78;100.00;100475.53;5029708;28;20285;-72
2022/12/06 07:46:16;;;;;;;0.10;0.10;;;3.80;99.90;;;3.69;100.00;100469.97;5028957;28;20297;-75
2022/12/06 07:48:43;;;;;;;0.43;0.43;;;3.90;99.90;;;3.67;100.00;100475.13;5029272;28;20235;-75
2022/12/06 07:51:10;;;;;;;0.10;0.10;;;3.80;99.90;;;3.70;100.00;100479.59;5025934;28;20305;-74
2022/12/06 07:53:37;;;;;;;0.10;0.10;;;3.80;99.90;;;3.67;100.00;100469.91;5026000;28;20238;-74
2022/12/06 07:56:06;;;;;;;0.10;0.10;;;3.70;99.90;;;3.70;100.00;100480.47;5014384;28;20259;-72
2022/12/06 07:58:33;;;;;;;0.10;0.10;;;3.80;99.90;;;3.72;100.00;100483.16;5031159;28;20658;-72
2022/12/06 08:01:02;;;;;;;0.10;0.10;;;3.80;99.90;;;3.75;100.00;100488.50;5028219;28;20338;-74
2022/12/06 08:03:30;;;;;;;0.22;0.22;;;3.80;99.90;;;3.79;100.00;100488.66;5029608;28;20235;-74
2022/12/06 08:05:57;;;;;;;0.20;0.20;;;3.90;99.90;;;3.77;100.00;100482.47;5030173;28;20227;-72
2022/12/06 08:08:24;;;;;;;0.10;0.10;;;3.80;99.90;;;3.74;100.00;100482.38;5025258;28;20301;-75
2022/12/06 08:10:59;;;;;;;0.10;0.10;;;3.80;99.90;;;3.77;100.00;100481.59;5016065;28;20224;-77
2022/12/06 08:13:27;;;;;;;0.10;0.10;;;4.00;99.90;;;3.74;100.00;100477.16;5011157;28;20283;-75
2022/12/06 08:15:54;;;;;;;0.10;0.10;;;3.90;99.90;;;3.76;100.00;100466.75;5015120;28;20259;-76
2022/12/06 08:18:21;;;;;;;0.10;0.10;;;3.90;99.90;;;3.75;100.00;100459.72;5028220;28;20234;-75
2022/12/06 08:20:49;;;;;;;0.10;0.10;;;3.90;99.90;;;3.77;100.00;100465.91;5018071;28;20235;-74
2022/12/06 08:23:16;;;;;;;0.20;0.20;;;3.90;99.90;;;3.81;100.00;100468.69;5020133;28;20325;-73
2022/12/06 08:25:43;;;;;;;0.10;0.10;;;3.90;99.90;;;3.85;100.00;100461.84;5022462;28;20263;-73
2022/12/06 08:28:12;;;;;;;0.10;0.10;;;4.00;99.90;;;3.86;100.00;100467.13;5021239;28;20233;-73
2022/12/06 08:30:40;;;;;;;0.20;0.20;;;4.00;99.90;;;3.90;100.00;100464.63;5021054;28;20644;-73
2022/12/06 08:33:07;;;;;;;0.15;0.15;;;4.00;99.90;;;3.92;100.00;100468.22;5020167;28;20227;-75
2022/12/06 08:35:37;;;;;;;0.10;0.10;;;4.00;99.90;;;3.94;100.00;100475.28;5016979;28;20282;-73
2022/12/06 08:38:05;;;;;;;0.10;0.10;;;4.10;99.90;;;3.92;100.00;100473.44;5012977;28;20265;-76
2022/12/06 08:40:32;;;;;;;0.10;0.10;;;4.00;99.90;;;3.96;100.00;100477.97;5023547;28;20269;-76
2022/12/06 08:42:59;;;;;;;0.10;0.10;;;4.00;99.90;;;3.96;100.00;100470.09;5020017;28;20219;-75
2022/12/06 08:45:26;;;;;;;0.22;0.22;;;4.00;99.90;;;3.99;100.00;100467.59;5020169;28;20251;-75
2022/12/06 08:47:53;;;;;;;0.10;0.10;;;4.10;99.90;;;3.96;100.00;100463.16;5003474;28;20219;-75
2022/12/06 08:50:20;;;;;;;0.70;0.70;;;4.10;99.90;;;3.94;100.00;100456.09;5016237;28;20259;-75
2022/12/06 08:52:47;;;;;;;0.10;0.10;;;4.10;99.90;;;3.96;100.00;100457.91;5019349;28;20230;-75
2022/12/06 08:55:14;;;;;;;0.45;0.45;;;4.10;99.90;;;4.05;100.00;100473.06;5013935;28;20235;-76
2022/12/06 08:57:41;;;;;;;0.10;0.10;;;4.20;99.90;;;4.10;100.00;100474.09;5017355;28;20235;-75
2022/12/06 09:00:09;;;;;;;0.30;0.30;;;4.20;99.90;;;4.13;100.00;100471.59;5021809;28;20246;-75
2022/12/06 09:02:40;;;;;;;0.10;0.10;;;4.20;99.90;;;4.09;100.00;100465.38;5022266;28;20231;-76
2022/12/06 09:05:08;;;;;;;0.10;0.10;;;4.20;99.90;;;4.12;100.00;100460.25;5023745;28;20227;-75
2022/12/06 09:07:35;;;;;;;0.10;0.10;;;4.20;99.90;;;4.20;100.00;100464.84;5034703;28;20243;-75
2022/12/06 09:10:04;;;;;;;0.10;0.10;;;4.30;99.90;;;4.19;100.00;100461.34;5023412;28;20234;-76
2022/12/06 09:12:31;;;;;;;0.63;0.63;;;4.30;99.90;;;4.24;100.00;100475.47;5013641;28;20234;-75
2022/12/06 09:14:58;;;;;;;0.30;0.30;;;4.40;99.90;;;4.25;100.00;100466.78;5017126;28;20231;-75
2022/12/06 09:17:25;;;;;;;0.10;0.10;;;4.40;99.90;;;4.32;100.00;100480.97;5008264;28;20293;-75
2022/12/06 09:19:52;;;;;;;0.10;0.10;;;4.40;99.90;;;4.33;100.00;100481.03;4995712;28;20246;-75
2022/12/06 09:22:20;;;;;;;0.10;0.10;;;4.40;99.90;;;4.36;100.00;100470.66;4985901;28;20223;-75
2022/12/06 09:24:48;;;;;;;0.10;0.10;;;4.50;99.90;;;4.38;100.00;100475.97;4985875;28;20255;-73
2022/12/06 09:27:15;;;;;;;0.10;0.10;;;4.50;99.90;;;4.46;100.00;100485.84;5017283;28;20230;-75
2022/12/06 09:29:42;;;;;;;0.10;0.10;;;4.50;99.90;;;4.52;100.00;100486.91;5011696;28;20224;-75
2022/12/06 09:32:09;;;;;;;0.20;0.20;;;4.60;99.90;;;4.54;100.00;100493.97;5012644;28;20248;-75
2022/12/06 09:34:37;;;;;;;0.10;0.10;;;4.60;99.90;;;4.50;100.00;100487.75;5028504;28;20306;-73
2022/12/06 09:37:10;;;;;;;0.10;0.10;;;4.60;99.90;;;4.52;100.00;100489.53;5017205;28;20319;-75
2022/12/06 09:39:49;;;;;;;0.10;0.10;;;4.60;99.90;;;4.59;100.00;100500.25;5017785;28;20231;-77
2022/12/06 09:42:47;;;;;;;0.20;0.20;;;4.70;99.90;;;4.62;100.00;100499.47;5021247;28;20230;-76
2022/12/06 09:46:09;;;;;;;0.10;0.10;;;4.70;99.90;;;4.53;100.00;100478.22;5020432;28;20245;-76
2022/12/06 09:48:58;;;;;;;0.05;0.05;;;4.70;99.90;;;4.62;100.00;100492.50;5020573;28;20641;-73
2022/12/06 09:51:52;;;;;;;0.10;0.10;;;4.70;99.90;;;4.63;100.00;100493.38;5003314;28;20223;-74
2022/12/06 09:54:34;;;;;;;0.10;0.10;;;4.70;99.90;;;4.70;100.00;100505.84;5019362;28;20227;-76
2022/12/06 09:57:24;;;;;;;0.10;0.10;;;4.80;99.90;;;4.62;100.00;100491.63;5021996;28;20297;-77
2022/12/06 10:00:08;;;;;;;0.10;0.10;;;4.80;99.90;;;4.66;100.00;100485.63;5015350;28;20608;-77
2022/12/06 10:03:17;;;;;;;0.10;0.10;;;4.80;99.90;;;4.70;100.00;100480.56;5017679;28;20366;-76
2022/12/06 10:06:04;;;;;;;0.10;0.10;;;4.80;99.90;;;4.76;100.00;100480.75;5020145;28;20226;-76
2022/12/06 10:08:56;;;;;;;0.10;0.10;;;4.90;99.90;;;4.78;100.00;100480.81;5014080;28;20320;-77
2022/12/06 10:12:01;;;;;;;0.10;0.10;;;4.90;99.90;;;4.96;100.00;100507.59;5023231;28;20286;-76
2022/12/06 10:14:40;;;;;;;0.10;0.10;;;5.00;99.90;;;4.94;100.00;100487.44;5005396;28;20613;-76
2022/12/06 10:18:10;;;;;;;0.10;0.10;;;5.00;99.90;;;4.94;100.00;100487.44;5022399;28;20227;-76
2022/12/06 10:21:03;;;;;;;0.10;0.10;;;5.10;99.90;;;4.97;100.00;100480.56;5007594;28;20227;-76
2022/12/06 10:23:49;;;;;;;0.20;0.20;;;5.10;99.90;;;5.02;100.00;100478.09;5028441;23;20228;-79
2022/12/06 10:26:48;;;;;;;0.10;0.10;;;5.10;99.90;;;4.95;100.00;100458.66;5005524;28;20238;-77
2022/12/06 10:29:25;;;;;;;0.10;0.10;;;5.10;99.90;;;5.01;100.00;100465.81;4999418;28;20232;-79
2022/12/06 10:32:11;;;;;;;0.17;0.17;;;5.10;99.90;;;5.05;100.00;100465.06;4985501;28;20240;-79
2022/12/06 10:35:06;;;;;;;0.10;0.10;;;5.10;99.90;;;5.05;100.00;100459.84;4982877;28;20223;-79
2022/12/06 10:37:56;;;;;;;0.10;0.10;;;5.20;99.90;;;5.21;100.00;100488.34;4988253;28;20320;-78
2022/12/06 10:40:49;;;;;;;0.03;0.03;;;5.30;99.90;;;5.22;100.00;100481.38;4994140;28;20295;-77
2022/12/06 10:43:49;;;;;;;0.10;0.10;;;5.30;99.90;;;5.17;100.00;100461.94;4992400;28;20259;-75
2022/12/06 10:47:02;;;;;;;0.10;0.10;;;5.30;99.90;;;5.23;100.00;100476.16;4982587;28;20307;-75
2022/12/06 10:50:05;;;;;;;0.10;0.10;;;5.30;99.90;;;5.23;100.00;100467.41;4975511;28;20243;-75
2022/12/06 10:52:51;;;;;;;0.10;0.10;;;5.30;99.90;;;5.30;100.00;100456.28;5003950;28;20235;-75
2022/12/06 10:55:35;;;;;;;0.10;0.10;;;5.40;99.90;;;5.24;100.00;100445.59;4993259;28;20233;-76
2022/12/06 10:58:35;;;;;;;0.10;0.10;;;5.40;99.90;;;5.21;100.00;100432.41;4988423;28;20234;-74
2022/12/06 11:01:15;;;;;;;0.10;0.10;;;5.40;99.90;;;5.31;100.00;100440.59;4975419;28;20247;-75
2022/12/06 11:04:25;;;;;;;0.20;0.20;;;4.90;99.90;;;5.37;99.90;100446.00;4986739;28;20263;-75
2022/12/06 11:06:59;;;;;;;0.10;0.10;;;5.50;99.90;;;5.43;99.68;100448.81;4935554;29;20234;-75
2022/12/06 11:09:43;;;;;;;0.10;0.10;;;5.60;99.90;;;5.44;99.61;100441.84;4915041;29;20253;-78